sensor_id;sensor_type;location;lat;lon;timestamp;temperature;humidity
49829;DHT22;35723;51.194;5.112;2022-12-24T00:01:24;12.30;99.90
49829;DHT22;35723;51.194;5.112;2022-12-24T00:03:49;12.40;99.90
49829;DHT22;35723;51.194;5.112;2022-12-24T00:06:18;12.40;99.90
49829;DHT22;35723;51.194;5.112;2022-12-24T00:08:44;12.40;99.90
49829;DHT22;35723;51.194;5.112;2022-12-24T00:11:10;12.50;99.90
49829;DHT22;35723;51.194;5.112;2022-12-24T00:13:35;12.60;99.90
49829;DHT22;35723;51.194;5.112;2022-12-24T00:16:01;12.50;99.90
49829;DHT22;35723;51.194;5.112;2022-12-24T00:18:27;12.30;99.90
49829;DHT22;35723;51.194;5.112;2022-12-24T00:20:52;12.40;99.90
49829;DHT22;35723;51.194;5.112;2022-12-24T00:23:18;12.30;99.90
49829;DHT22;35723;51.194;5.112;2022-12-24T00:25:44;12.40;99.90
49829;DHT22;35723;51.194;5.112;2022-12-24T00:28:10;12.60;99.90
49829;DHT22;35723;51.194;5.112;2022-12-24T00:30:40;12.50;99.90
49829;DHT22;35723;51.194;5.112;2022-12-24T00:33:06;12.50;99.90
49829;DHT22;35723;51.194;5.112;2022-12-24T00:35:36;12.50;99.90
49829;DHT22;35723;51.194;5.112;2022-12-24T00:38:02;12.50;99.90
49829;DHT22;35723;51.194;5.112;2022-12-24T00:40:29;12.50;99.90
49829;DHT22;35723;51.194;5.112;2022-12-24T00:42:55;12.50;99.90
49829;DHT22;35723;51.194;5.112;2022-12-24T00:45:21;12.50;99.90
49829;DHT22;35723;51.194;5.112;2022-12-24T00:47:47;12.40;99.90
49829;DHT22;35723;51.194;5.112;2022-12-24T00:50:13;12.40;99.90
49829;DHT22;35723;51.194;5.112;2022-12-24T00:52:39;12.30;99.90
49829;DHT22;35723;51.194;5.112;2022-12-24T00:55:05;12.30;99.90
49829;DHT22;35723;51.194;5.112;2022-12-24T00:57:30;12.30;99.90
49829;DHT22;35723;51.194;5.112;2022-12-24T00:59:56;12.30;99.90
49829;DHT22;35723;51.194;5.112;2022-12-24T01:02:22;12.30;99.90
49829;DHT22;35723;51.194;5.112;2022-12-24T01:04:47;12.40;99.90
49829;DHT22;35723;51.194;5.112;2022-12-24T01:07:32;12.40;99.90
49829;DHT22;35723;51.194;5.112;2022-12-24T01:09:58;12.40;99.90
49829;DHT22;35723;51.194;5.112;2022-12-24T01:12:24;12.40;99.90
49829;DHT22;35723;51.194;5.112;2022-12-24T01:14:49;12.40;99.90
49829;DHT22;35723;51.194;5.112;2022-12-24T01:17:15;12.40;99.90
49829;DHT22;35723;51.194;5.112;2022-12-24T01:19:41;12.40;99.90
49829;DHT22;35723;51.194;5.112;2022-12-24T01:22:07;12.30;99.90
49829;DHT22;35723;51.194;5.112;2022-12-24T01:24:32;12.30;99.90
49829;DHT22;35723;51.194;5.112;2022-12-24T01:26:58;12.30;99.90
49829;DHT22;35723;51.194;5.112;2022-12-24T01:29:23;12.30;99.90
49829;DHT22;35723;51.194;5.112;2022-12-24T01:31:49;12.30;99.90
49829;DHT22;35723;51.194;5.112;2022-12-24T01:34:15;12.40;99.90
49829;DHT22;35723;51.194;5.112;2022-12-24T01:36:41;12.50;99.90
49829;DHT22;35723;51.194;5.112;2022-12-24T01:39:06;12.50;99.90
49829;DHT22;35723;51.194;5.112;2022-12-24T01:41:32;12.40;99.90
49829;DHT22;35723;51.194;5.112;2022-12-24T01:46:42;12.50;99.90
49829;DHT22;35723;51.194;5.112;2022-12-24T01:49:10;12.50;99.90
49829;DHT22;35723;51.194;5.112;2022-12-24T01:51:39;12.30;99.90
49829;DHT22;35723;51.194;5.112;2022-12-24T01:54:10;12.30;99.90
49829;DHT22;35723;51.194;5.112;2022-12-24T01:56:40;12.30;99.90
49829;DHT22;35723;51.194;5.112;2022-12-24T01:59:09;12.30;99.90
49829;DHT22;35723;51.194;5.112;2022-12-24T02:01:37;12.30;99.90
49829;DHT22;35723;51.194;5.112;2022-12-24T02:04:12;12.40;99.90
49829;DHT22;35723;51.194;5.112;2022-12-24T02:06:42;12.30;99.90
49829;DHT22;35723;51.194;5.112;2022-12-24T02:09:07;12.30;99.90
49829;DHT22;35723;51.194;5.112;2022-12-24T02:11:33;12.40;99.90
49829;DHT22;35723;51.194;5.112;2022-12-24T02:14:01;12.40;99.90
49829;DHT22;35723;51.194;5.112;2022-12-24T02:16:57;12.40;99.90
49829;DHT22;35723;51.194;5.112;2022-12-24T02:22:16;12.40;99.90
49829;DHT22;35723;51.194;5.112;2022-12-24T02:25:03;12.30;99.90
49829;DHT22;35723;51.194;5.112;2022-12-24T02:35:34;12.40;99.90
49829;DHT22;35723;51.194;5.112;2022-12-24T02:43:48;12.40;99.90
49829;DHT22;35723;51.194;5.112;2022-12-24T02:46:22;12.30;99.90
49829;DHT22;35723;51.194;5.112;2022-12-24T02:48:49;12.50;99.90
49829;DHT22;35723;51.194;5.112;2022-12-24T02:51:15;12.40;99.90
49829;DHT22;35723;51.194;5.112;2022-12-24T02:53:41;12.30;99.90
49829;DHT22;35723;51.194;5.112;2022-12-24T02:56:30;12.30;99.90
49829;DHT22;35723;51.194;5.112;2022-12-24T03:10:36;12.20;99.90
49829;DHT22;35723;51.194;5.112;2022-12-24T03:13:18;12.10;99.90
49829;DHT22;35723;51.194;5.112;2022-12-24T03:15:46;12.20;99.90
49829;DHT22;35723;51.194;5.112;2022-12-24T03:18:14;12.20;99.90
49829;DHT22;35723;51.194;5.112;2022-12-24T03:20:49;12.20;99.90
49829;DHT22;35723;51.194;5.112;2022-12-24T03:23:17;12.20;99.90
49829;DHT22;35723;51.194;5.112;2022-12-24T03:25:43;12.20;99.90
49829;DHT22;35723;51.194;5.112;2022-12-24T03:28:13;12.20;99.90
49829;DHT22;35723;51.194;5.112;2022-12-24T03:30:41;12.20;99.90
49829;DHT22;35723;51.194;5.112;2022-12-24T03:33:08;12.20;99.90
49829;DHT22;35723;51.194;5.112;2022-12-24T03:35:33;12.10;99.90
49829;DHT22;35723;51.194;5.112;2022-12-24T03:37:59;12.20;99.90
49829;DHT22;35723;51.194;5.112;2022-12-24T03:40:25;12.20;99.90
49829;DHT22;35723;51.194;5.112;2022-12-24T03:42:50;12.20;99.90
49829;DHT22;35723;51.194;5.112;2022-12-24T03:45:16;12.30;99.90
49829;DHT22;35723;51.194;5.112;2022-12-24T03:47:42;12.30;99.90
49829;DHT22;35723;51.194;5.112;2022-12-24T03:50:07;12.30;99.90
49829;DHT22;35723;51.194;5.112;2022-12-24T03:52:33;12.30;99.90
49829;DHT22;35723;51.194;5.112;2022-12-24T03:54:59;12.20;99.90
49829;DHT22;35723;51.194;5.112;2022-12-24T03:57:24;12.20;99.90
49829;DHT22;35723;51.194;5.112;2022-12-24T03:59:50;12.30;99.90
49829;DHT22;35723;51.194;5.112;2022-12-24T04:02:16;12.30;99.90
49829;DHT22;35723;51.194;5.112;2022-12-24T04:04:41;12.30;99.90
49829;DHT22;35723;51.194;5.112;2022-12-24T04:07:07;12.30;99.90
49829;DHT22;35723;51.194;5.112;2022-12-24T04:09:33;12.20;99.90
49829;DHT22;35723;51.194;5.112;2022-12-24T04:11:58;12.20;99.90
49829;DHT22;35723;51.194;5.112;2022-12-24T04:14:24;12.30;99.90
49829;DHT22;35723;51.194;5.112;2022-12-24T04:16:50;12.30;99.90
49829;DHT22;35723;51.194;5.112;2022-12-24T04:19:15;12.30;99.90
49829;DHT22;35723;51.194;5.112;2022-12-24T04:21:41;12.20;99.90
49829;DHT22;35723;51.194;5.112;2022-12-24T04:24:07;12.30;99.90
49829;DHT22;35723;51.194;5.112;2022-12-24T04:26:32;12.10;99.90
49829;DHT22;35723;51.194;5.112;2022-12-24T04:28:58;12.20;99.90
49829;DHT22;35723;51.194;5.112;2022-12-24T04:31:23;12.20;99.90
49829;DHT22;35723;51.194;5.112;2022-12-24T04:33:50;12.20;99.90
49829;DHT22;35723;51.194;5.112;2022-12-24T04:36:17;12.30;99.90
49829;DHT22;35723;51.194;5.112;2022-12-24T04:38:45;12.20;99.90
49829;DHT22;35723;51.194;5.112;2022-12-24T04:41:13;12.20;99.90
49829;DHT22;35723;51.194;5.112;2022-12-24T04:43:39;12.20;99.90
49829;DHT22;35723;51.194;5.112;2022-12-24T04:46:14;12.10;99.90
49829;DHT22;35723;51.194;5.112;2022-12-24T04:48:43;12.10;99.90
49829;DHT22;35723;51.194;5.112;2022-12-24T04:51:09;12.20;99.90
49829;DHT22;35723;51.194;5.112;2022-12-24T04:53:35;12.10;99.90
49829;DHT22;35723;51.194;5.112;2022-12-24T04:56:01;12.20;99.90
49829;DHT22;35723;51.194;5.112;2022-12-24T04:58:27;12.10;99.90
49829;DHT22;35723;51.194;5.112;2022-12-24T05:00:52;12.00;99.90
49829;DHT22;35723;51.194;5.112;2022-12-24T05:03:19;12.00;99.90
49829;DHT22;35723;51.194;5.112;2022-12-24T05:05:44;12.10;99.90
49829;DHT22;35723;51.194;5.112;2022-12-24T05:08:10;12.20;99.90
49829;DHT22;35723;51.194;5.112;2022-12-24T05:10:36;12.10;99.90
49829;DHT22;35723;51.194;5.112;2022-12-24T05:13:02;12.10;99.90
49829;DHT22;35723;51.194;5.112;2022-12-24T05:15:28;12.20;99.90
49829;DHT22;35723;51.194;5.112;2022-12-24T05:17:53;12.10;99.90
49829;DHT22;35723;51.194;5.112;2022-12-24T05:20:19;12.10;99.90
49829;DHT22;35723;51.194;5.112;2022-12-24T05:22:45;12.20;99.90
49829;DHT22;35723;51.194;5.112;2022-12-24T05:25:36;12.20;99.90
49829;DHT22;35723;51.194;5.112;2022-12-24T05:28:21;12.30;99.90
49829;DHT22;35723;51.194;5.112;2022-12-24T05:30:47;12.20;99.90
49829;DHT22;35723;51.194;5.112;2022-12-24T05:33:12;12.30;99.90
49829;DHT22;35723;51.194;5.112;2022-12-24T05:35:38;12.30;99.90
49829;DHT22;35723;51.194;5.112;2022-12-24T05:38:03;12.20;99.90
49829;DHT22;35723;51.194;5.112;2022-12-24T05:40:29;12.20;99.90
49829;DHT22;35723;51.194;5.112;2022-12-24T05:42:55;12.20;99.90
49829;DHT22;35723;51.194;5.112;2022-12-24T05:45:20;12.20;99.90
49829;DHT22;35723;51.194;5.112;2022-12-24T05:47:46;12.10;99.90
49829;DHT22;35723;51.194;5.112;2022-12-24T05:50:11;12.10;99.90
49829;DHT22;35723;51.194;5.112;2022-12-24T05:52:37;12.10;99.90
49829;DHT22;35723;51.194;5.112;2022-12-24T05:55:03;12.00;99.90
49829;DHT22;35723;51.194;5.112;2022-12-24T05:57:29;12.00;99.90
49829;DHT22;35723;51.194;5.112;2022-12-24T05:59:54;12.00;99.90
49829;DHT22;35723;51.194;5.112;2022-12-24T06:02:20;12.00;99.90
49829;DHT22;35723;51.194;5.112;2022-12-24T06:04:46;12.10;99.90
49829;DHT22;35723;51.194;5.112;2022-12-24T06:07:11;12.10;99.90
49829;DHT22;35723;51.194;5.112;2022-12-24T06:09:37;12.00;99.90
49829;DHT22;35723;51.194;5.112;2022-12-24T06:12:03;12.00;99.90
49829;DHT22;35723;51.194;5.112;2022-12-24T06:14:29;12.10;99.90
49829;DHT22;35723;51.194;5.112;2022-12-24T06:16:54;12.10;99.90
49829;DHT22;35723;51.194;5.112;2022-12-24T06:19:20;12.10;99.90
49829;DHT22;35723;51.194;5.112;2022-12-24T06:21:46;12.10;99.90
49829;DHT22;35723;51.194;5.112;2022-12-24T06:24:11;12.00;99.90
49829;DHT22;35723;51.194;5.112;2022-12-24T06:26:37;11.90;99.90
49829;DHT22;35723;51.194;5.112;2022-12-24T06:29:03;11.90;99.90
49829;DHT22;35723;51.194;5.112;2022-12-24T06:31:28;12.00;99.90
49829;DHT22;35723;51.194;5.112;2022-12-24T06:33:54;11.90;99.90
49829;DHT22;35723;51.194;5.112;2022-12-24T06:36:22;11.80;99.90
49829;DHT22;35723;51.194;5.112;2022-12-24T06:38:48;12.00;99.90
49829;DHT22;35723;51.194;5.112;2022-12-24T06:41:15;12.00;99.90
49829;DHT22;35723;51.194;5.112;2022-12-24T06:43:48;12.00;99.90
49829;DHT22;35723;51.194;5.112;2022-12-24T06:46:16;12.10;99.90
49829;DHT22;35723;51.194;5.112;2022-12-24T06:48:42;12.00;99.90
49829;DHT22;35723;51.194;5.112;2022-12-24T06:51:09;12.10;99.90
49829;DHT22;35723;51.194;5.112;2022-12-24T06:53:34;12.20;99.90
49829;DHT22;35723;51.194;5.112;2022-12-24T06:56:08;12.10;99.90
49829;DHT22;35723;51.194;5.112;2022-12-24T06:58:35;12.00;99.90
49829;DHT22;35723;51.194;5.112;2022-12-24T07:01:05;12.00;99.90
49829;DHT22;35723;51.194;5.112;2022-12-24T07:03:32;12.00;99.90
49829;DHT22;35723;51.194;5.112;2022-12-24T07:05:59;11.90;99.90
49829;DHT22;35723;51.194;5.112;2022-12-24T07:08:25;11.90;99.90
49829;DHT22;35723;51.194;5.112;2022-12-24T07:10:52;11.90;99.90
49829;DHT22;35723;51.194;5.112;2022-12-24T07:13:18;11.90;99.90
49829;DHT22;35723;51.194;5.112;2022-12-24T07:15:44;11.90;99.90
49829;DHT22;35723;51.194;5.112;2022-12-24T07:18:10;12.10;99.90
49829;DHT22;35723;51.194;5.112;2022-12-24T07:20:37;12.00;99.90
49829;DHT22;35723;51.194;5.112;2022-12-24T07:23:03;12.00;99.90
49829;DHT22;35723;51.194;5.112;2022-12-24T07:25:28;12.10;99.90
49829;DHT22;35723;51.194;5.112;2022-12-24T07:27:54;12.00;99.90
49829;DHT22;35723;51.194;5.112;2022-12-24T07:30:21;12.00;99.90
49829;DHT22;35723;51.194;5.112;2022-12-24T07:32:46;12.10;99.90
49829;DHT22;35723;51.194;5.112;2022-12-24T07:35:12;12.00;99.90
49829;DHT22;35723;51.194;5.112;2022-12-24T07:37:38;12.00;99.90
49829;DHT22;35723;51.194;5.112;2022-12-24T07:40:04;11.90;99.90
49829;DHT22;35723;51.194;5.112;2022-12-24T07:42:34;11.90;99.90
49829;DHT22;35723;51.194;5.112;2022-12-24T07:44:59;11.90;99.90
49829;DHT22;35723;51.194;5.112;2022-12-24T07:47:25;11.90;99.90
49829;DHT22;35723;51.194;5.112;2022-12-24T07:49:51;11.90;99.90
49829;DHT22;35723;51.194;5.112;2022-12-24T07:52:16;11.90;99.90
49829;DHT22;35723;51.194;5.112;2022-12-24T07:54:42;12.00;99.90
49829;DHT22;35723;51.194;5.112;2022-12-24T07:57:07;11.90;99.90
49829;DHT22;35723;51.194;5.112;2022-12-24T07:59:33;12.00;99.90
49829;DHT22;35723;51.194;5.112;2022-12-24T08:01:59;12.00;99.90
49829;DHT22;35723;51.194;5.112;2022-12-24T08:04:24;12.00;99.90
49829;DHT22;35723;51.194;5.112;2022-12-24T08:06:50;12.00;99.90
49829;DHT22;35723;51.194;5.112;2022-12-24T08:09:16;12.00;99.90
49829;DHT22;35723;51.194;5.112;2022-12-24T08:11:41;12.00;99.90
49829;DHT22;35723;51.194;5.112;2022-12-24T08:14:07;11.90;99.90
49829;DHT22;35723;51.194;5.112;2022-12-24T08:16:33;11.90;99.90
49829;DHT22;35723;51.194;5.112;2022-12-24T08:18:58;11.80;99.90
49829;DHT22;35723;51.194;5.112;2022-12-24T08:21:24;11.90;99.90
49829;DHT22;35723;51.194;5.112;2022-12-24T08:23:49;11.80;99.90
49829;DHT22;35723;51.194;5.112;2022-12-24T08:26:15;11.80;99.90
49829;DHT22;35723;51.194;5.112;2022-12-24T08:28:41;11.80;99.90
49829;DHT22;35723;51.194;5.112;2022-12-24T08:31:06;11.90;99.90
49829;DHT22;35723;51.194;5.112;2022-12-24T08:33:32;11.90;99.90
49829;DHT22;35723;51.194;5.112;2022-12-24T08:36:00;11.90;99.90
49829;DHT22;35723;51.194;5.112;2022-12-24T08:38:26;11.90;99.90
49829;DHT22;35723;51.194;5.112;2022-12-24T08:40:53;11.90;99.90
49829;DHT22;35723;51.194;5.112;2022-12-24T08:43:19;11.90;99.90
49829;DHT22;35723;51.194;5.112;2022-12-24T08:45:49;12.00;99.90
49829;DHT22;35723;51.194;5.112;2022-12-24T08:48:16;11.90;99.90
49829;DHT22;35723;51.194;5.112;2022-12-24T08:50:42;11.90;99.90
49829;DHT22;35723;51.194;5.112;2022-12-24T08:53:09;12.00;99.90
49829;DHT22;35723;51.194;5.112;2022-12-24T08:55:35;12.10;99.90
49829;DHT22;35723;51.194;5.112;2022-12-24T08:58:00;12.10;99.90
49829;DHT22;35723;51.194;5.112;2022-12-24T09:00:26;12.00;99.90
49829;DHT22;35723;51.194;5.112;2022-12-24T09:02:52;12.00;99.90
49829;DHT22;35723;51.194;5.112;2022-12-24T09:05:18;11.90;99.90
49829;DHT22;35723;51.194;5.112;2022-12-24T09:07:44;12.00;99.90
49829;DHT22;35723;51.194;5.112;2022-12-24T09:10:10;12.00;99.90
49829;DHT22;35723;51.194;5.112;2022-12-24T09:12:36;12.00;99.90
49829;DHT22;35723;51.194;5.112;2022-12-24T09:15:02;11.90;99.90
49829;DHT22;35723;51.194;5.112;2022-12-24T09:17:28;12.00;99.90
49829;DHT22;35723;51.194;5.112;2022-12-24T09:19:53;12.00;99.90
49829;DHT22;35723;51.194;5.112;2022-12-24T09:22:21;12.00;99.90
49829;DHT22;35723;51.194;5.112;2022-12-24T09:24:47;12.00;99.90
49829;DHT22;35723;51.194;5.112;2022-12-24T09:27:12;12.10;99.90
49829;DHT22;35723;51.194;5.112;2022-12-24T09:29:38;12.00;99.90
49829;DHT22;35723;51.194;5.112;2022-12-24T09:32:05;12.10;99.90
49829;DHT22;35723;51.194;5.112;2022-12-24T09:34:31;12.00;99.90
49829;DHT22;35723;51.194;5.112;2022-12-24T09:36:57;12.10;99.90
49829;DHT22;35723;51.194;5.112;2022-12-24T09:39:24;12.20;99.90
49829;DHT22;35723;51.194;5.112;2022-12-24T09:42:00;12.20;99.90
49829;DHT22;35723;51.194;5.112;2022-12-24T09:47:27;12.20;99.90
49829;DHT22;35723;51.194;5.112;2022-12-24T09:49:56;12.00;99.90
49829;DHT22;35723;51.194;5.112;2022-12-24T09:52:39;11.90;99.90
49829;DHT22;35723;51.194;5.112;2022-12-24T09:57:39;12.10;99.90
49829;DHT22;35723;51.194;5.112;2022-12-24T10:00:23;12.10;99.90
49829;DHT22;35723;51.194;5.112;2022-12-24T10:02:50;12.10;99.90
49829;DHT22;35723;51.194;5.112;2022-12-24T10:05:19;12.10;99.90
49829;DHT22;35723;51.194;5.112;2022-12-24T10:08:01;12.10;99.90
49829;DHT22;35723;51.194;5.112;2022-12-24T10:10:45;12.10;99.90
49829;DHT22;35723;51.194;5.112;2022-12-24T10:21:30;12.20;99.90
49829;DHT22;35723;51.194;5.112;2022-12-24T10:24:15;12.20;99.90
49829;DHT22;35723;51.194;5.112;2022-12-24T10:27:01;12.20;99.90
49829;DHT22;35723;51.194;5.112;2022-12-24T10:29:31;12.20;99.90
49829;DHT22;35723;51.194;5.112;2022-12-24T10:32:25;12.10;99.90
49829;DHT22;35723;51.194;5.112;2022-12-24T10:35:03;12.10;99.90
49829;DHT22;35723;51.194;5.112;2022-12-24T10:37:30;12.10;99.90
49829;DHT22;35723;51.194;5.112;2022-12-24T10:39:58;12.20;99.90
49829;DHT22;35723;51.194;5.112;2022-12-24T10:42:37;12.20;99.90
49829;DHT22;35723;51.194;5.112;2022-12-24T10:45:06;12.20;99.90
49829;DHT22;35723;51.194;5.112;2022-12-24T10:47:37;12.20;99.90
49829;DHT22;35723;51.194;5.112;2022-12-24T10:52:52;12.40;99.90
49829;DHT22;35723;51.194;5.112;2022-12-24T10:55:22;12.40;99.90
49829;DHT22;35723;51.194;5.112;2022-12-24T10:58:01;12.40;99.90
49829;DHT22;35723;51.194;5.112;2022-12-24T11:00:28;12.50;99.90
49829;DHT22;35723;51.194;5.112;2022-12-24T11:03:20;12.40;99.90
49829;DHT22;35723;51.194;5.112;2022-12-24T11:06:02;12.40;99.90
49829;DHT22;35723;51.194;5.112;2022-12-24T11:08:28;12.40;99.90
49829;DHT22;35723;51.194;5.112;2022-12-24T11:10:55;12.60;99.90
49829;DHT22;35723;51.194;5.112;2022-12-24T11:13:28;12.50;99.90
49829;DHT22;35723;51.194;5.112;2022-12-24T11:16:00;12.50;99.90
49829;DHT22;35723;51.194;5.112;2022-12-24T11:18:27;12.50;99.90
49829;DHT22;35723;51.194;5.112;2022-12-24T11:20:53;12.60;99.90
49829;DHT22;35723;51.194;5.112;2022-12-24T11:23:19;12.70;99.90
49829;DHT22;35723;51.194;5.112;2022-12-24T11:25:48;12.70;99.90
49829;DHT22;35723;51.194;5.112;2022-12-24T11:31:15;12.70;99.90
49829;DHT22;35723;51.194;5.112;2022-12-24T11:33:48;12.70;99.90
49829;DHT22;35723;51.194;5.112;2022-12-24T11:36:16;12.90;99.90
49829;DHT22;35723;51.194;5.112;2022-12-24T11:38:55;12.90;99.90
49829;DHT22;35723;51.194;5.112;2022-12-24T11:41:22;12.80;99.90
49829;DHT22;35723;51.194;5.112;2022-12-24T11:44:00;12.80;99.90
49829;DHT22;35723;51.194;5.112;2022-12-24T11:46:40;12.80;99.90
49829;DHT22;35723;51.194;5.112;2022-12-24T11:51:37;12.90;99.90
49829;DHT22;35723;51.194;5.112;2022-12-24T11:54:20;13.00;99.90
49829;DHT22;35723;51.194;5.112;2022-12-24T11:56:54;13.10;99.90
49829;DHT22;35723;51.194;5.112;2022-12-24T11:59:39;12.90;99.90
49829;DHT22;35723;51.194;5.112;2022-12-24T12:02:21;13.00;99.90
49829;DHT22;35723;51.194;5.112;2022-12-24T12:04:57;13.00;99.90
49829;DHT22;35723;51.194;5.112;2022-12-24T12:07:32;13.00;99.90
49829;DHT22;35723;51.194;5.112;2022-12-24T12:12:35;13.10;99.90
49829;DHT22;35723;51.194;5.112;2022-12-24T12:15:14;13.20;99.90
49829;DHT22;35723;51.194;5.112;2022-12-24T12:17:53;13.20;99.90
49829;DHT22;35723;51.194;5.112;2022-12-24T12:20:27;13.20;99.90
49829;DHT22;35723;51.194;5.112;2022-12-24T12:28:10;13.00;99.90
49829;DHT22;35723;51.194;5.112;2022-12-24T12:30:40;13.10;99.90
49829;DHT22;35723;51.194;5.112;2022-12-24T12:33:32;13.20;99.90
49829;DHT22;35723;51.194;5.112;2022-12-24T12:36:04;13.30;99.90
49829;DHT22;35723;51.194;5.112;2022-12-24T12:38:31;13.40;99.90
49829;DHT22;35723;51.194;5.112;2022-12-24T12:49:40;13.60;99.90
49829;DHT22;35723;51.194;5.112;2022-12-24T12:55:04;13.50;99.90
49829;DHT22;35723;51.194;5.112;2022-12-24T12:57:36;13.50;99.90
49829;DHT22;35723;51.194;5.112;2022-12-24T13:00:09;13.50;99.90
49829;DHT22;35723;51.194;5.112;2022-12-24T13:13:54;13.40;99.90
49829;DHT22;35723;51.194;5.112;2022-12-24T13:22:15;13.30;99.90
49829;DHT22;35723;51.194;5.112;2022-12-24T13:24:50;13.30;99.90
49829;DHT22;35723;51.194;5.112;2022-12-24T13:27:17;13.30;99.90
49829;DHT22;35723;51.194;5.112;2022-12-24T13:30:05;13.30;99.90
49829;DHT22;35723;51.194;5.112;2022-12-24T13:35:00;13.40;99.90
49829;DHT22;35723;51.194;5.112;2022-12-24T13:50:46;13.30;99.90
49829;DHT22;35723;51.194;5.112;2022-12-24T13:53:43;13.40;99.90
49829;DHT22;35723;51.194;5.112;2022-12-24T13:58:47;13.30;99.90
49829;DHT22;35723;51.194;5.112;2022-12-24T14:01:36;13.30;99.90
49829;DHT22;35723;51.194;5.112;2022-12-24T14:04:03;13.30;99.90
49829;DHT22;35723;51.194;5.112;2022-12-24T14:06:33;13.30;99.90
49829;DHT22;35723;51.194;5.112;2022-12-24T14:09:18;13.20;99.90
49829;DHT22;35723;51.194;5.112;2022-12-24T14:17:00;13.40;99.90
49829;DHT22;35723;51.194;5.112;2022-12-24T14:19:40;13.30;99.90
49829;DHT22;35723;51.194;5.112;2022-12-24T14:22:37;13.30;99.90
49829;DHT22;35723;51.194;5.112;2022-12-24T14:25:08;13.30;99.90
49829;DHT22;35723;51.194;5.112;2022-12-24T14:27:45;13.20;99.90
49829;DHT22;35723;51.194;5.112;2022-12-24T14:30:25;13.20;99.90
49829;DHT22;35723;51.194;5.112;2022-12-24T14:32:51;13.20;99.90
49829;DHT22;35723;51.194;5.112;2022-12-24T14:35:18;13.20;99.90
49829;DHT22;35723;51.194;5.112;2022-12-24T14:37:48;13.20;99.90
49829;DHT22;35723;51.194;5.112;2022-12-24T14:40:21;13.20;99.90
49829;DHT22;35723;51.194;5.112;2022-12-24T14:43:01;13.20;99.90
49829;DHT22;35723;51.194;5.112;2022-12-24T14:45:44;13.00;99.90
49829;DHT22;35723;51.194;5.112;2022-12-24T14:48:21;13.00;99.90
49829;DHT22;35723;51.194;5.112;2022-12-24T14:50:56;13.00;99.90
49829;DHT22;35723;51.194;5.112;2022-12-24T14:56:26;13.10;99.90
49829;DHT22;35723;51.194;5.112;2022-12-24T14:58:52;13.10;99.90
49829;DHT22;35723;51.194;5.112;2022-12-24T15:01:24;13.10;99.90
49829;DHT22;35723;51.194;5.112;2022-12-24T15:06:46;13.00;99.90
49829;DHT22;35723;51.194;5.112;2022-12-24T15:09:22;13.10;99.90
49829;DHT22;35723;51.194;5.112;2022-12-24T15:11:51;13.00;99.90
49829;DHT22;35723;51.194;5.112;2022-12-24T15:14:18;13.00;99.90
49829;DHT22;35723;51.194;5.112;2022-12-24T15:16:56;12.90;99.90
49829;DHT22;35723;51.194;5.112;2022-12-24T15:19:37;12.90;99.90
49829;DHT22;35723;51.194;5.112;2022-12-24T15:22:07;12.90;99.90
49829;DHT22;35723;51.194;5.112;2022-12-24T15:24:41;12.90;99.90
49829;DHT22;35723;51.194;5.112;2022-12-24T15:27:19;12.90;99.90
49829;DHT22;35723;51.194;5.112;2022-12-24T15:29:47;12.90;99.90
49829;DHT22;35723;51.194;5.112;2022-12-24T15:32:15;12.90;99.90
49829;DHT22;35723;51.194;5.112;2022-12-24T15:34:42;12.90;99.90
49829;DHT22;35723;51.194;5.112;2022-12-24T15:39:43;12.90;99.90
49829;DHT22;35723;51.194;5.112;2022-12-24T15:42:10;12.80;99.90
49829;DHT22;35723;51.194;5.112;2022-12-24T15:44:45;12.90;99.90
49829;DHT22;35723;51.194;5.112;2022-12-24T15:47:17;12.70;99.90
49829;DHT22;35723;51.194;5.112;2022-12-24T15:49:47;12.80;99.90
49829;DHT22;35723;51.194;5.112;2022-12-24T15:52:16;12.80;99.90
49829;DHT22;35723;51.194;5.112;2022-12-24T15:54:45;12.70;99.90
49829;DHT22;35723;51.194;5.112;2022-12-24T15:57:24;12.70;99.90
49829;DHT22;35723;51.194;5.112;2022-12-24T15:59:55;12.70;99.90
49829;DHT22;35723;51.194;5.112;2022-12-24T16:05:30;12.70;99.90
49829;DHT22;35723;51.194;5.112;2022-12-24T16:10:43;12.80;99.90
49829;DHT22;35723;51.194;5.112;2022-12-24T16:13:28;12.70;99.90
49829;DHT22;35723;51.194;5.112;2022-12-24T16:16:28;12.50;99.90
49829;DHT22;35723;51.194;5.112;2022-12-24T16:18:55;12.50;99.90
49829;DHT22;35723;51.194;5.112;2022-12-24T16:21:27;12.30;99.90
49829;DHT22;35723;51.194;5.112;2022-12-24T16:23:55;12.30;99.90
49829;DHT22;35723;51.194;5.112;2022-12-24T16:26:21;12.20;99.90
49829;DHT22;35723;51.194;5.112;2022-12-24T16:28:47;12.10;99.90
49829;DHT22;35723;51.194;5.112;2022-12-24T16:31:31;12.10;99.90
49829;DHT22;35723;51.194;5.112;2022-12-24T16:33:59;12.00;99.90
49829;DHT22;35723;51.194;5.112;2022-12-24T16:36:26;12.00;99.90
49829;DHT22;35723;51.194;5.112;2022-12-24T16:38:52;11.90;99.90
49829;DHT22;35723;51.194;5.112;2022-12-24T16:41:36;11.90;99.90
49829;DHT22;35723;51.194;5.112;2022-12-24T16:44:22;11.80;99.90
49829;DHT22;35723;51.194;5.112;2022-12-24T16:46:47;11.60;99.90
49829;DHT22;35723;51.194;5.112;2022-12-24T16:49:18;11.60;99.90
49829;DHT22;35723;51.194;5.112;2022-12-24T16:51:45;11.60;99.90
49829;DHT22;35723;51.194;5.112;2022-12-24T16:54:14;11.50;99.90
49829;DHT22;35723;51.194;5.112;2022-12-24T16:56:40;11.50;99.90
49829;DHT22;35723;51.194;5.112;2022-12-24T16:59:16;11.50;99.90
49829;DHT22;35723;51.194;5.112;2022-12-24T17:01:43;11.50;99.90
49829;DHT22;35723;51.194;5.112;2022-12-24T17:04:09;11.50;99.90
49829;DHT22;35723;51.194;5.112;2022-12-24T17:06:34;11.50;99.90
49829;DHT22;35723;51.194;5.112;2022-12-24T17:09:00;11.40;99.90
49829;DHT22;35723;51.194;5.112;2022-12-24T17:11:26;11.40;99.90
49829;DHT22;35723;51.194;5.112;2022-12-24T17:13:51;11.40;99.90
49829;DHT22;35723;51.194;5.112;2022-12-24T17:16:17;11.40;99.90
49829;DHT22;35723;51.194;5.112;2022-12-24T17:18:43;11.50;99.90
49829;DHT22;35723;51.194;5.112;2022-12-24T17:21:08;11.50;99.90
49829;DHT22;35723;51.194;5.112;2022-12-24T17:23:35;11.60;99.90
49829;DHT22;35723;51.194;5.112;2022-12-24T17:26:01;11.60;99.90
49829;DHT22;35723;51.194;5.112;2022-12-24T17:28:27;11.60;99.90
49829;DHT22;35723;51.194;5.112;2022-12-24T17:30:53;11.60;99.90
49829;DHT22;35723;51.194;5.112;2022-12-24T17:33:19;11.60;99.90
49829;DHT22;35723;51.194;5.112;2022-12-24T17:35:44;11.60;99.90
49829;DHT22;35723;51.194;5.112;2022-12-24T17:38:12;11.60;99.90
49829;DHT22;35723;51.194;5.112;2022-12-24T17:40:38;11.70;99.90
49829;DHT22;35723;51.194;5.112;2022-12-24T17:43:04;11.60;99.90
49829;DHT22;35723;51.194;5.112;2022-12-24T17:45:29;11.60;99.90
49829;DHT22;35723;51.194;5.112;2022-12-24T17:47:55;11.60;99.90
49829;DHT22;35723;51.194;5.112;2022-12-24T17:50:21;11.60;99.90